Indianapolis International Airport
KIND : now visible

Airfield :











YOU CAN JOIN US ON...

 
LOGIN :

Register | Disclaimer

   EN    FR    IT 

 









Legend :    VFR   Marginal VFR   IFR   Intensive IFR   Very Intensive IFR
Visi :
Ceiling :
>= 8 km
>= 3000ft
5 to 8 km
1000 to 3000 ft
1500m to 5 km
500 to 1000 ft
800 to 1500m
200 to 500 ft
< 800m
< 200 ft
Symbols :   Thunderstorms  Fog  Heavy snow  Heavy precipitations  Wind > 20 kt






- Airport Elevation : 797 ft
- IATA code : IND


KIND - Indianapolis International

CURRENT METAR :
  • 162254Z 04013G19KT 10SM FEW060 FEW085 SCT250 27/12 A3002 RMK AO2 SLP159 T02670122

EXPIRED METARs :
  • 162154Z 05009G18KT 10SM FEW060 FEW085 SCT250 28/13 A3002 RMK AO2 SLP158 T02780128
  • 162054Z 02011G20KT 10SM FEW060 SCT085 SCT250 28/12 A3002 RMK AO2 SLP160 T02780117 56009

TAF KIND
Valid from the 16 at 20:00 until the 18 at 00:00 UTC


162017Z 1620/1724 03011G16KT P6SM SCT060
FM170000 04007KT P6SM FEW250
KZID FIR / North America



MET'MAP, your aeronautical weather chart ! - Copyright ORBIFLY December 2007 - Disclaimer

ORBIFLY MET'MAP TEAM :

Programming & Development : Alexandra Zaïnal
Original concept : Baudouin d'Aumeries
Technical & hardware support : Manuel Goepfert
Assistance : Marc-Olivier Méhu




SOURCES & CREDITS :

   NOAA       Earth
Advisory